createdAt,value
2024-02-04T00:01:09.469Z,101057.59
2024-02-04T00:06:11.825Z,101044.09
2024-02-04T00:11:14.950Z,101048.44
2024-02-04T00:16:16.501Z,101046.34
2024-02-04T00:21:18.103Z,101043.88
2024-02-04T00:26:19.415Z,101011.81
2024-02-04T00:31:20.724Z,101039.81
2024-02-04T00:36:22.999Z,100987.41
2024-02-04T00:41:24.415Z,101018.75
2024-02-04T00:46:25.754Z,101020.63
2024-02-04T00:51:27.104Z,101017.44
2024-02-04T00:56:28.524Z,101012.44
2024-02-04T01:01:30.343Z,100982.44
2024-02-04T01:06:37.435Z,101008.47
2024-02-04T01:11:45.090Z,101028.06
2024-02-04T01:16:46.648Z,101006.78
2024-02-04T01:21:48.008Z,101017.22
2024-02-04T01:26:49.373Z,101006.97
2024-02-04T01:31:50.693Z,101000.19
2024-02-04T01:36:52.061Z,101009.13
2024-02-04T01:41:53.470Z,101034.16
2024-02-04T01:46:55.633Z,101028.41
2024-02-04T01:51:59.212Z,101029.16
2024-02-04T01:57:03.989Z,101046.50
2024-02-04T02:02:08.948Z,101040.78
2024-02-04T02:07:10.948Z,101028.84
2024-02-04T02:12:18.583Z,101026.16
2024-02-04T02:17:26.433Z,101021.47
2024-02-04T02:22:31.307Z,101020.50
2024-02-04T02:27:32.838Z,101018.25
2024-02-04T02:32:34.373Z,101008.66
2024-02-04T02:37:42.227Z,101003.41
2024-02-04T02:42:44.456Z,100999.28
2024-02-04T02:47:47.043Z,100973.69
2024-02-04T02:52:48.761Z,100984.31
2024-02-04T02:57:50.546Z,100972.19
2024-02-04T03:02:51.980Z,100980.03
2024-02-04T03:07:53.341Z,100968.44
2024-02-04T03:12:54.894Z,100955.09
2024-02-04T03:17:56.447Z,100963.28
2024-02-04T03:22:58.199Z,100968.91
2024-02-04T03:27:59.751Z,100959.78
2024-02-04T03:33:01.187Z,100977.25
2024-02-04T03:38:03.030Z,100959.69
2024-02-04T03:43:05.044Z,100956.34
2024-02-04T03:48:07.046Z,100935.69
2024-02-04T03:53:09.564Z,100954.66
2024-02-04T03:58:10.944Z,100938.72
2024-02-04T04:03:12.662Z,100935.38
2024-02-04T04:08:14.323Z,100909.44
2024-02-04T04:13:15.690Z,100952.06
2024-02-04T04:18:17.454Z,100938.53
2024-02-04T04:23:18.997Z,100944.84
2024-02-04T04:28:20.552Z,100950.81
2024-02-04T04:33:22.109Z,100955.06
2024-02-04T04:38:23.659Z,100942.94
2024-02-04T04:43:25.124Z,100952.31
2024-02-04T04:48:26.772Z,100951.53
2024-02-04T04:53:28.318Z,100942.53
2024-02-04T04:58:30.188Z,100956.56
2024-02-04T05:03:31.575Z,100955.97
2024-02-04T05:08:33.715Z,100954.25
2024-02-04T05:13:35.230Z,100945.88
2024-02-04T05:18:37.342Z,100950.13
2024-02-04T05:23:39.047Z,100905.09
2024-02-04T05:28:40.605Z,100943.63
2024-02-04T05:33:41.992Z,100932.47
2024-02-04T05:38:46.122Z,100939.72
2024-02-04T05:43:48.019Z,100956.09
2024-02-04T05:48:50.926Z,100938.41
2024-02-04T05:53:52.353Z,100936.75
2024-02-04T05:58:54.261Z,100949.41
2024-02-04T06:03:55.923Z,100939.72
2024-02-04T06:08:57.357Z,100938.03
2024-02-04T06:13:58.789Z,100937.84
2024-02-04T06:19:00.952Z,100929.41
2024-02-04T06:24:02.318Z,100932.63
2024-02-04T06:29:03.709Z,100930.06
2024-02-04T06:34:05.226Z,100933.97
2024-02-04T06:39:12.038Z,100930.78
2024-02-04T06:44:13.381Z,100921.09
2024-02-04T06:49:19.342Z,100916.44
2024-02-04T06:54:22.252Z,100915.56
2024-02-04T06:59:23.581Z,100920.88
2024-02-04T07:04:29.270Z,100916.44
2024-02-04T07:09:30.614Z,100906.75
2024-02-04T07:14:32.055Z,100913.03
2024-02-04T07:19:33.535Z,100916.03
2024-02-04T07:24:36.662Z,100921.97
2024-02-04T07:29:39.597Z,100931.56
2024-02-04T07:34:41.524Z,100942.84
2024-02-04T07:39:43.431Z,100936.03
2024-02-04T07:44:46.383Z,100947.94
2024-02-04T07:49:51.575Z,100946.25
2024-02-04T07:54:53.260Z,100937.00
2024-02-04T07:59:54.586Z,100920.09
2024-02-04T08:04:56.056Z,100925.41
2024-02-04T08:09:58.213Z,100922.53
2024-02-04T08:14:59.555Z,100936.78
2024-02-04T08:20:01.118Z,100924.97
2024-02-04T08:25:03.644Z,100936.25
2024-02-04T08:30:06.210Z,100916.03
2024-02-04T08:35:07.848Z,100927.22
2024-02-04T08:40:10.932Z,100920.06
2024-02-04T08:45:12.876Z,100917.88
2024-02-04T08:50:14.936Z,100925.03
2024-02-04T08:55:16.623Z,100915.44
2024-02-04T09:00:18.408Z,100910.94
2024-02-04T09:05:21.399Z,100917.34
2024-02-04T09:10:23.148Z,100913.28
2024-02-04T09:15:24.474Z,100932.75
2024-02-04T09:20:25.920Z,100925.75
2024-02-04T09:25:27.699Z,100925.88
2024-02-04T09:30:29.491Z,100920.66
2024-02-04T09:35:32.249Z,100901.91
2024-02-04T09:40:37.035Z,100900.31
2024-02-04T09:45:40.028Z,100896.22
2024-02-04T09:50:41.789Z,100903.75
2024-02-04T09:55:44.594Z,100901.00
2024-02-04T10:00:48.524Z,100894.81
2024-02-04T10:05:50.120Z,100921.25
2024-02-04T10:10:54.174Z,100893.00
2024-02-04T10:15:57.585Z,100918.56
2024-02-04T10:20:59.797Z,100890.25
2024-02-04T10:26:05.371Z,100920.69
2024-02-04T10:31:14.522Z,100913.22
2024-02-04T10:36:16.440Z,100898.09
2024-02-04T10:41:19.747Z,100878.25
2024-02-04T10:46:24.031Z,100891.47
2024-02-04T10:51:30.910Z,100884.09
2024-02-04T10:56:48.155Z,100879.75
2024-02-04T11:01:50.363Z,100862.50
2024-02-04T11:06:54.343Z,100869.50
2024-02-04T11:11:59.500Z,100855.19
2024-02-04T11:17:40.317Z,100843.53
2024-02-04T11:23:19.353Z,100844.47
2024-02-04T11:28:22.856Z,100840.56
2024-02-04T11:33:24.922Z,100836.00
2024-02-04T11:38:36.696Z,100847.34
2024-02-04T11:43:41.873Z,100836.69
2024-02-04T11:48:43.758Z,100856.84
2024-02-04T11:53:46.391Z,100837.22
2024-02-04T11:58:48.072Z,100837.22
2024-02-04T12:03:52.320Z,100840.97
2024-02-04T12:08:53.791Z,100811.66
2024-02-04T12:13:57.120Z,100821.75
2024-02-04T12:18:58.648Z,100818.59
2024-02-04T12:24:00.724Z,100809.63
2024-02-04T12:29:02.408Z,100798.78
2024-02-04T12:34:04.341Z,100806.31
2024-02-04T12:39:08.636Z,100796.06
2024-02-04T12:44:10.069Z,100805.31
2024-02-04T12:49:21.125Z,100793.34
2024-02-04T12:54:22.563Z,100800.00
2024-02-04T12:59:29.950Z,100793.63
2024-02-04T13:04:43.097Z,100791.59
2024-02-04T13:09:45.556Z,100784.06
2024-02-04T13:14:48.533Z,100784.91
2024-02-04T13:19:50.010Z,100770.22
2024-02-04T13:24:51.449Z,100774.47
2024-02-04T13:29:52.808Z,100779.59
2024-02-04T13:35:02.937Z,100766.88
2024-02-04T13:40:11.576Z,100758.03
2024-02-04T13:45:19.397Z,100768.25
2024-02-04T13:50:21.079Z,100770.19
2024-02-04T13:55:24.817Z,100783.97
2024-02-04T14:00:26.276Z,100787.59
2024-02-04T14:05:27.829Z,100778.72
2024-02-04T14:10:29.403Z,100768.75
2024-02-04T14:15:32.132Z,100770.06
2024-02-04T14:20:35.810Z,100753.94
2024-02-04T14:25:37.645Z,100760.38
2024-02-04T14:30:39.019Z,100775.03
2024-02-04T14:35:41.471Z,100770.84
2024-02-04T14:40:43.056Z,100764.97
2024-02-04T14:45:45.308Z,100775.16
2024-02-04T14:50:49.563Z,100787.31
2024-02-04T14:55:54.244Z,100768.53
2024-02-04T15:00:55.906Z,100769.13
2024-02-04T15:05:57.487Z,100769.13
2024-02-04T15:10:58.921Z,100762.59
2024-02-04T15:16:02.384Z,100775.22
2024-02-04T15:21:05.255Z,100784.63
2024-02-04T15:26:12.590Z,100782.69
2024-02-04T15:31:15.410Z,100777.03
2024-02-04T15:36:20.207Z,100768.94
2024-02-04T15:41:21.713Z,100770.59
2024-02-04T15:46:24.649Z,100775.44
2024-02-04T15:51:27.052Z,100751.06
2024-02-04T15:56:33.959Z,100699.53
2024-02-04T16:01:36.616Z,100734.22
2024-02-04T16:06:40.389Z,100745.38
2024-02-04T16:12:00.627Z,100732.75
2024-02-04T16:17:05.579Z,100745.13
2024-02-04T16:22:07.141Z,100769.84
2024-02-04T16:27:08.520Z,100770.59
2024-02-04T16:32:12.106Z,100781.38
2024-02-04T16:37:14.093Z,100752.16
2024-02-04T16:42:17.185Z,100759.16
2024-02-04T16:47:20.281Z,100768.16
2024-02-04T16:52:21.680Z,100760.03
2024-02-04T16:57:25.556Z,100758.16
2024-02-04T17:02:29.239Z,100762.31
2024-02-04T17:07:31.315Z,100760.09
2024-02-04T17:12:33.485Z,100748.84
2024-02-04T17:17:37.191Z,100751.09
2024-02-04T17:22:40.074Z,100754.00
2024-02-04T17:27:44.719Z,100760.06
2024-02-04T17:32:49.576Z,100745.28
2024-02-04T17:37:53.474Z,100748.06
2024-02-04T17:42:57.689Z,100745.53
2024-02-04T17:47:59.364Z,100755.47
2024-02-04T17:53:00.888Z,100736.94
2024-02-04T17:58:04.751Z,100724.69
2024-02-04T18:03:07.262Z,100731.44
2024-02-04T18:08:09.387Z,100734.31
2024-02-04T18:13:11.436Z,100735.09
2024-02-04T18:18:13.059Z,100722.59
2024-02-04T18:23:16.435Z,100712.75
2024-02-04T18:28:20.868Z,100721.75
2024-02-04T18:33:22.488Z,100719.09
2024-02-04T18:38:23.902Z,100715.56
2024-02-04T18:43:25.799Z,100727.81
2024-02-04T18:48:29.481Z,100714.50
2024-02-04T18:53:31.820Z,100725.75
2024-02-04T18:58:35.351Z,100709.88
2024-02-04T19:03:36.885Z,100693.31
2024-02-04T19:08:38.662Z,100695.84
2024-02-04T19:13:40.021Z,100709.50
2024-02-04T19:18:41.353Z,100701.41
2024-02-04T19:23:43.058Z,100701.53
2024-02-04T19:28:46.740Z,100698.25
2024-02-04T19:33:48.278Z,100695.47
2024-02-04T19:38:49.579Z,100706.97
2024-02-04T19:43:52.074Z,100691.72
2024-02-04T19:48:53.759Z,100683.56
2024-02-04T19:53:56.907Z,100699.94
2024-02-04T19:59:05.198Z,100706.97
2024-02-04T20:04:06.750Z,100706.97
2024-02-04T20:09:08.668Z,100708.78
2024-02-04T20:14:10.079Z,100715.22
2024-02-04T20:19:11.576Z,100710.34
2024-02-04T20:24:13.914Z,100711.22
2024-02-04T20:29:15.251Z,100719.34
2024-02-04T20:34:19.455Z,100719.16
2024-02-04T20:39:20.941Z,100713.59
2024-02-04T20:44:22.790Z,100719.78
2024-02-04T20:49:24.116Z,100719.56
2024-02-04T20:54:28.555Z,100722.00
2024-02-04T20:59:30.637Z,100737.22
2024-02-04T21:04:34.630Z,100733.84
2024-02-04T21:09:39.677Z,100729.00
2024-02-04T21:14:43.334Z,100761.84
2024-02-04T21:19:46.353Z,100759.28
2024-02-04T21:24:49.833Z,100754.00
2024-02-04T21:29:51.227Z,100742.16
2024-02-04T21:34:53.273Z,100738.88
2024-02-04T21:39:54.953Z,100738.34
2024-02-04T21:44:56.538Z,100739.31
2024-02-04T21:50:00.560Z,100737.50
2024-02-04T21:55:04.479Z,100731.31
2024-02-04T22:00:09.375Z,100731.44
2024-02-04T22:05:10.802Z,100715.41
2024-02-04T22:10:12.577Z,100716.13
2024-02-04T22:15:14.345Z,100709.97
2024-02-04T22:20:16.607Z,100700.63
2024-02-04T22:25:26.103Z,100696.13
2024-02-04T22:30:28.656Z,100690.19
2024-02-04T22:35:29.958Z,100684.66
2024-02-04T22:40:31.656Z,100702.03
2024-02-04T22:45:34.119Z,100691.28
2024-02-04T22:50:37.599Z,100691.38
2024-02-04T22:55:40.768Z,100697.47
2024-02-04T23:00:42.198Z,100698.75
2024-02-04T23:05:44.100Z,100690.91
2024-02-04T23:10:45.884Z,100678.53
2024-02-04T23:15:48.352Z,100687.09
2024-02-04T23:20:51.427Z,100670.50
2024-02-04T23:25:53.254Z,100693.38
2024-02-04T23:30:56.494Z,100690.44
2024-02-04T23:35:57.887Z,100694.06
2024-02-04T23:40:59.672Z,100692.03
2024-02-04T23:46:01.111Z,100692.56
2024-02-04T23:51:02.704Z,100679.81
2024-02-04T23:56:04.457Z,100680.59
